createdAt,value
2018-12-08T00:00:25.290Z,1.40
2018-12-08T00:02:53.786Z,1.67
2018-12-08T00:05:22.224Z,2.40
2018-12-08T00:07:50.811Z,2.08
2018-12-08T00:10:19.281Z,1.80
2018-12-08T00:12:47.626Z,2.10
2018-12-08T00:15:15.951Z,1.80
2018-12-08T00:17:44.312Z,1.60
2018-12-08T00:20:12.827Z,1.35
2018-12-08T00:22:41.242Z,1.65
2018-12-08T00:25:09.652Z,1.60
2018-12-08T00:27:38.098Z,1.20
2018-12-08T00:30:17.640Z,2.30
2018-12-08T00:32:45.992Z,2.25
2018-12-08T00:35:14.382Z,1.60
2018-12-08T00:37:42.804Z,1.35
2018-12-08T00:40:11.330Z,1.85
2018-12-08T00:42:39.736Z,1.30
2018-12-08T00:45:08.156Z,1.20
2018-12-08T00:47:36.501Z,2.15
2018-12-08T00:50:05.136Z,1.70
2018-12-08T00:52:33.484Z,1.70
2018-12-08T00:55:01.911Z,1.22
2018-12-08T00:57:30.297Z,1.85
2018-12-08T00:59:58.706Z,2.33
2018-12-08T01:02:27.016Z,1.75
2018-12-08T01:04:55.484Z,1.52
2018-12-08T01:07:23.828Z,1.90
2018-12-08T01:09:52.303Z,1.92
2018-12-08T01:12:20.633Z,2.00
2018-12-08T01:14:48.976Z,1.90
2018-12-08T01:17:17.316Z,1.75
2018-12-08T01:19:45.697Z,1.50
2018-12-08T01:22:14.035Z,1.32
2018-12-08T01:24:44.188Z,1.20
2018-12-08T01:27:12.829Z,1.60
2018-12-08T01:29:41.736Z,1.67
2018-12-08T01:32:10.196Z,3.20
2018-12-08T01:34:38.584Z,2.33
2018-12-08T01:37:06.944Z,1.27
2018-12-08T01:39:35.420Z,1.60
2018-12-08T01:42:03.773Z,1.20
2018-12-08T01:44:32.136Z,2.35
2018-12-08T01:47:00.541Z,1.25
2018-12-08T01:49:29.004Z,1.40
2018-12-08T01:51:57.396Z,1.30
2018-12-08T01:54:25.756Z,1.77
2018-12-08T01:56:54.246Z,1.77
2018-12-08T01:59:22.617Z,2.00
2018-12-08T02:01:50.960Z,1.57
2018-12-08T02:04:19.373Z,2.20
2018-12-08T02:06:47.769Z,1.35
2018-12-08T02:09:16.096Z,1.55
2018-12-08T02:11:44.424Z,1.50
2018-12-08T02:14:12.853Z,1.20
2018-12-08T02:16:41.710Z,1.40
2018-12-08T02:19:10.030Z,1.77
2018-12-08T02:21:38.396Z,1.80
2018-12-08T02:24:06.737Z,1.40
2018-12-08T02:26:35.091Z,1.10
2018-12-08T02:29:03.465Z,1.30
2018-12-08T02:31:31.885Z,1.55
2018-12-08T02:34:00.247Z,1.67
2018-12-08T02:36:28.640Z,1.57
2018-12-08T02:38:57.051Z,1.67
2018-12-08T02:41:25.591Z,1.70
2018-12-08T02:43:53.933Z,1.42
2018-12-08T02:46:22.299Z,1.20
2018-12-08T02:48:50.677Z,0.72
2018-12-08T02:51:19.074Z,1.20
2018-12-08T02:53:47.473Z,1.00
2018-12-08T02:56:15.900Z,1.25
2018-12-08T02:58:44.229Z,1.20
2018-12-08T03:01:12.560Z,1.00
2018-12-08T03:03:40.944Z,1.05
2018-12-08T03:06:10.026Z,1.35
2018-12-08T03:08:38.386Z,0.65
2018-12-08T03:11:06.857Z,0.95
2018-12-08T03:13:35.211Z,1.20
2018-12-08T03:16:03.656Z,1.10
2018-12-08T03:18:32.044Z,1.22
2018-12-08T03:21:00.470Z,1.65
2018-12-08T03:23:28.796Z,1.25
2018-12-08T03:25:57.161Z,0.90
2018-12-08T03:28:25.570Z,1.00
2018-12-08T03:30:53.955Z,0.88
2018-12-08T03:33:22.306Z,1.10
2018-12-08T03:35:50.710Z,1.45
2018-12-08T03:38:19.063Z,2.10
2018-12-08T03:40:47.380Z,2.37
2018-12-08T03:43:15.923Z,1.42
2018-12-08T03:45:44.284Z,1.70
2018-12-08T03:48:12.592Z,1.00
2018-12-08T03:50:40.955Z,1.32
2018-12-08T03:53:09.634Z,1.52
2018-12-08T03:55:38.089Z,1.10
2018-12-08T03:58:06.444Z,1.27
2018-12-08T04:00:34.987Z,1.57
2018-12-08T04:03:03.373Z,1.40
2018-12-08T04:05:31.700Z,2.83
2018-12-08T04:08:00.131Z,1.20
2018-12-08T04:10:28.481Z,1.22
2018-12-08T04:12:56.904Z,1.17
2018-12-08T04:15:25.292Z,1.20
2018-12-08T04:17:53.697Z,1.10
2018-12-08T04:20:22.072Z,1.20
2018-12-08T04:22:50.419Z,1.07
2018-12-08T04:25:18.904Z,0.68
2018-12-08T04:27:47.300Z,1.20
2018-12-08T04:30:15.658Z,1.45
2018-12-08T04:32:44.180Z,0.75
2018-12-08T04:35:13.017Z,1.45
2018-12-08T04:37:42.426Z,1.05
2018-12-08T04:40:10.921Z,1.10
2018-12-08T04:42:39.252Z,1.57
2018-12-08T04:45:07.866Z,1.80
2018-12-08T04:47:36.288Z,1.07
2018-12-08T04:50:05.388Z,1.10
2018-12-08T04:52:34.059Z,1.00
2018-12-08T04:55:02.413Z,1.00
2018-12-08T04:57:30.792Z,2.00
2018-12-08T04:59:59.226Z,0.70
2018-12-08T05:02:27.550Z,1.05
2018-12-08T05:04:55.886Z,1.00
2018-12-08T05:07:24.250Z,1.27
2018-12-08T05:09:52.648Z,1.32
2018-12-08T05:12:20.992Z,1.07
2018-12-08T05:14:49.310Z,1.15
2018-12-08T05:17:17.671Z,1.00
2018-12-08T05:19:46.014Z,0.90
2018-12-08T05:22:14.364Z,1.12
2018-12-08T05:24:42.715Z,0.90
2018-12-08T05:27:11.128Z,0.72
2018-12-08T05:29:39.465Z,1.07
2018-12-08T05:32:07.831Z,1.30
2018-12-08T05:34:36.281Z,1.00
2018-12-08T05:37:04.676Z,0.90
2018-12-08T05:39:32.989Z,1.15
2018-12-08T05:42:01.512Z,0.85
2018-12-08T05:44:29.829Z,1.20
2018-12-08T05:46:58.173Z,1.12
2018-12-08T05:49:26.616Z,1.60
2018-12-08T05:51:54.938Z,1.52
2018-12-08T05:54:23.328Z,0.80
2018-12-08T05:56:51.673Z,1.20
2018-12-08T05:59:20.172Z,1.77
2018-12-08T06:01:48.618Z,1.00
2018-12-08T06:04:16.977Z,1.10
2018-12-08T06:06:45.341Z,1.22
2018-12-08T06:09:13.672Z,1.67
2018-12-08T06:11:42.053Z,1.67
2018-12-08T06:14:10.388Z,1.55
2018-12-08T06:16:38.719Z,1.52
2018-12-08T06:19:07.083Z,1.57
2018-12-08T06:21:39.746Z,1.32
2018-12-08T06:24:08.480Z,1.67
2018-12-08T06:27:15.113Z,1.92
2018-12-08T06:29:43.468Z,1.90
2018-12-08T06:32:11.793Z,1.50
2018-12-08T06:34:40.151Z,1.77
2018-12-08T06:37:08.483Z,2.08
2018-12-08T06:39:36.848Z,2.12
2018-12-08T06:42:05.147Z,1.35
2018-12-08T06:44:33.513Z,1.82
2018-12-08T06:47:01.922Z,1.50
2018-12-08T06:49:30.317Z,1.77
2018-12-08T06:51:58.635Z,1.47
2018-12-08T06:54:26.961Z,1.92
2018-12-08T06:56:55.325Z,3.95
2018-12-08T06:59:23.648Z,2.00
2018-12-08T07:01:52.153Z,4.22
2018-12-08T07:04:20.487Z,1.90
2018-12-08T07:06:48.833Z,2.05
2018-12-08T07:09:17.215Z,2.00
2018-12-08T07:11:45.595Z,2.10
2018-12-08T07:14:13.954Z,1.40
2018-12-08T07:16:42.296Z,2.75
2018-12-08T07:19:10.615Z,2.47
2018-12-08T07:21:38.990Z,2.22
2018-12-08T07:24:07.404Z,1.87
2018-12-08T07:26:35.827Z,1.55
2018-12-08T07:29:04.291Z,2.08
2018-12-08T07:31:32.726Z,2.30
2018-12-08T07:34:01.032Z,2.58
2018-12-08T07:36:29.385Z,2.17
2018-12-08T07:38:57.741Z,2.80
2018-12-08T07:41:26.148Z,1.80
2018-12-08T07:43:54.519Z,2.00
2018-12-08T07:46:22.882Z,2.10
2018-12-08T07:48:51.283Z,2.60
2018-12-08T07:51:19.636Z,2.40
2018-12-08T07:53:47.981Z,1.92
2018-12-08T07:56:16.327Z,2.30
2018-12-08T07:58:44.691Z,2.20
2018-12-08T08:01:13.035Z,2.02
2018-12-08T08:03:41.689Z,1.95
2018-12-08T08:06:10.026Z,2.10
2018-12-08T08:08:38.375Z,1.87
2018-12-08T08:11:06.730Z,1.85
2018-12-08T08:13:35.165Z,2.52
2018-12-08T08:16:03.505Z,2.20
2018-12-08T08:18:31.849Z,2.20
2018-12-08T08:21:00.180Z,2.00
2018-12-08T08:23:28.567Z,1.52
2018-12-08T08:25:56.879Z,1.62
2018-12-08T08:28:25.248Z,1.67
2018-12-08T08:30:53.643Z,1.50
2018-12-08T08:33:22.025Z,1.60
2018-12-08T08:35:50.769Z,1.45
2018-12-08T08:38:19.218Z,1.50
2018-12-08T08:40:47.609Z,1.70
2018-12-08T08:43:15.941Z,1.00
2018-12-08T08:45:44.416Z,1.47
2018-12-08T08:48:12.750Z,1.35
2018-12-08T08:50:41.175Z,2.20
2018-12-08T08:53:09.496Z,2.05
2018-12-08T08:55:37.859Z,1.10
2018-12-08T08:58:06.295Z,1.20
2018-12-08T09:00:34.652Z,1.22
2018-12-08T09:03:03.053Z,1.00
2018-12-08T09:05:31.454Z,1.20
2018-12-08T09:07:59.813Z,1.02
2018-12-08T09:10:28.184Z,1.07
2018-12-08T09:12:56.556Z,1.22
2018-12-08T09:15:24.948Z,1.10
2018-12-08T09:17:53.396Z,0.80
2018-12-08T09:20:21.767Z,1.40
2018-12-08T09:22:50.214Z,0.82
2018-12-08T09:25:18.615Z,1.22
2018-12-08T09:27:47.077Z,0.90
2018-12-08T09:30:15.429Z,1.02
2018-12-08T09:32:43.823Z,1.17
2018-12-08T09:35:12.252Z,0.82
2018-12-08T09:37:41.579Z,1.35
2018-12-08T09:40:10.065Z,0.95
2018-12-08T09:42:38.492Z,0.95
2018-12-08T09:45:07.276Z,1.00
2018-12-08T09:47:35.629Z,0.60
2018-12-08T09:50:05.004Z,0.80
2018-12-08T09:52:33.370Z,1.12
2018-12-08T09:55:01.692Z,1.20
2018-12-08T09:57:30.086Z,1.12
2018-12-08T09:59:58.379Z,1.20
2018-12-08T10:02:26.940Z,0.93
2018-12-08T10:04:55.249Z,0.93
2018-12-08T10:07:23.620Z,1.15
2018-12-08T10:09:52.003Z,0.93
2018-12-08T10:12:20.431Z,1.17
2018-12-08T10:14:48.777Z,0.85
2018-12-08T10:17:17.099Z,0.70
2018-12-08T10:19:45.417Z,1.25
2018-12-08T10:22:13.723Z,1.05
2018-12-08T10:24:42.164Z,1.42
2018-12-08T10:27:11.299Z,1.50
2018-12-08T10:29:39.695Z,1.32
2018-12-08T10:32:08.040Z,1.52
2018-12-08T10:34:36.418Z,1.25
2018-12-08T10:37:04.750Z,1.37
2018-12-08T10:39:33.141Z,1.12
2018-12-08T10:42:01.548Z,1.35
2018-12-08T10:44:29.956Z,1.62
2018-12-08T10:46:58.352Z,1.05
2018-12-08T10:49:26.809Z,1.20
2018-12-08T10:51:55.189Z,1.10
2018-12-08T10:54:24.891Z,1.22
2018-12-08T10:56:53.508Z,1.32
2018-12-08T10:59:21.933Z,1.30
2018-12-08T11:01:58.711Z,1.22
2018-12-08T11:04:27.049Z,1.60
2018-12-08T11:06:55.421Z,1.52
2018-12-08T11:09:24.136Z,1.62
2018-12-08T11:11:52.559Z,1.45
2018-12-08T11:14:20.949Z,1.30
2018-12-08T11:16:49.351Z,1.50
2018-12-08T11:19:18.037Z,1.90
2018-12-08T11:21:46.401Z,1.15
2018-12-08T11:24:14.780Z,1.30
2018-12-08T11:26:43.304Z,1.40
2018-12-08T11:29:11.671Z,2.92
2018-12-08T11:31:40.072Z,1.00
2018-12-08T11:34:08.397Z,1.30
2018-12-08T11:36:36.757Z,1.00
2018-12-08T11:39:07.017Z,1.35
2018-12-08T11:41:37.520Z,1.17
2018-12-08T11:44:05.833Z,1.45
2018-12-08T11:46:34.159Z,1.20
2018-12-08T11:49:02.591Z,1.50
2018-12-08T11:51:30.930Z,1.45
2018-12-08T11:53:59.322Z,1.30
2018-12-08T11:56:27.831Z,0.85
2018-12-08T11:59:00.170Z,0.90
2018-12-08T12:01:28.683Z,1.27
2018-12-08T12:03:57.066Z,1.42
2018-12-08T12:06:25.545Z,0.70
2018-12-08T12:08:54.008Z,0.98
2018-12-08T12:11:22.568Z,0.70
2018-12-08T12:13:50.968Z,0.90
2018-12-08T12:16:20.095Z,0.88
2018-12-08T12:18:48.477Z,0.68
2018-12-08T12:21:16.859Z,0.90
2018-12-08T12:23:45.205Z,1.00
2018-12-08T12:26:13.558Z,1.07
2018-12-08T12:28:41.930Z,0.82
2018-12-08T12:31:10.296Z,1.40
2018-12-08T12:33:38.649Z,1.00
2018-12-08T12:36:06.981Z,1.10
2018-12-08T12:38:35.356Z,1.65
2018-12-08T12:41:03.934Z,0.90
2018-12-08T12:43:32.289Z,0.90
2018-12-08T12:46:00.652Z,1.12
2018-12-08T12:48:28.998Z,0.80
2018-12-08T12:50:57.492Z,0.80
2018-12-08T12:53:25.870Z,0.90
2018-12-08T12:55:54.548Z,1.00
2018-12-08T12:58:22.884Z,1.00
2018-12-08T13:00:51.360Z,1.15
2018-12-08T13:03:19.736Z,1.22
2018-12-08T13:05:48.133Z,1.20
2018-12-08T13:08:16.508Z,0.90
2018-12-08T13:10:44.888Z,1.22
2018-12-08T13:13:13.254Z,1.15
2018-12-08T13:15:41.678Z,1.27
2018-12-08T13:18:10.136Z,1.50
2018-12-08T13:20:38.501Z,1.10
2018-12-08T13:23:06.924Z,0.95
2018-12-08T13:25:35.286Z,1.30
2018-12-08T13:28:03.805Z,1.27
2018-12-08T13:30:33.112Z,1.05
2018-12-08T13:33:01.477Z,0.88
2018-12-08T13:35:53.584Z,1.47
2018-12-08T13:38:23.421Z,1.70
2018-12-08T13:40:52.137Z,1.25
2018-12-08T13:43:20.550Z,1.30
2018-12-08T13:45:48.939Z,1.00
2018-12-08T13:48:19.291Z,0.80
2018-12-08T13:50:47.893Z,1.00
2018-12-08T13:53:16.290Z,1.00
2018-12-08T13:55:44.658Z,1.27
2018-12-08T13:58:13.052Z,1.10
2018-12-08T14:00:41.435Z,1.10
2018-12-08T14:03:09.809Z,0.60
2018-12-08T14:05:38.509Z,1.30
2018-12-08T14:08:06.965Z,1.00
2018-12-08T14:10:35.386Z,0.80
2018-12-08T14:13:03.956Z,0.70
2018-12-08T14:15:32.341Z,1.00
2018-12-08T14:18:00.860Z,0.65
2018-12-08T14:20:31.386Z,1.20
2018-12-08T14:23:00.304Z,0.75
2018-12-08T14:25:28.806Z,0.78
2018-12-08T14:27:57.679Z,1.02
2018-12-08T14:30:26.076Z,1.22
2018-12-08T14:32:54.389Z,0.80
2018-12-08T14:35:22.726Z,0.60
2018-12-08T14:37:51.097Z,0.62
2018-12-08T14:40:19.592Z,0.80
2018-12-08T14:42:47.955Z,1.10
2018-12-08T14:45:16.637Z,1.57
2018-12-08T14:47:45.006Z,0.88
2018-12-08T14:50:13.528Z,1.00
2018-12-08T14:52:42.018Z,0.90
2018-12-08T14:55:10.811Z,1.05
2018-12-08T14:57:39.208Z,1.10
2018-12-08T15:00:15.378Z,1.10
2018-12-08T15:02:43.748Z,1.00
2018-12-08T15:05:12.229Z,0.88
2018-12-08T15:07:40.580Z,0.70
2018-12-08T15:10:11.043Z,0.50
2018-12-08T15:12:39.461Z,0.55
2018-12-08T15:15:09.430Z,1.05
2018-12-08T15:17:37.857Z,1.05
2018-12-08T15:20:08.020Z,0.93
2018-12-08T15:22:36.463Z,0.88
2018-12-08T15:25:06.125Z,1.55
2018-12-08T15:27:34.562Z,1.55
2018-12-08T15:30:03.273Z,0.90
2018-12-08T15:32:31.678Z,1.15
2018-12-08T15:35:00.040Z,1.07
2018-12-08T15:37:28.388Z,0.80
2018-12-08T15:39:56.816Z,0.85
2018-12-08T15:42:25.211Z,0.72
2018-12-08T15:44:53.570Z,1.00
2018-12-08T15:47:21.906Z,0.93
2018-12-08T15:49:50.760Z,0.78
2018-12-08T15:52:19.253Z,0.93
2018-12-08T15:54:48.256Z,1.17
2018-12-08T15:57:16.689Z,1.02
2018-12-08T15:59:45.784Z,1.10
2018-12-08T16:02:14.421Z,1.17
2018-12-08T16:04:42.881Z,1.20
2018-12-08T16:07:11.253Z,1.60
2018-12-08T16:09:39.617Z,1.60
2018-12-08T16:12:07.973Z,2.05
2018-12-08T16:14:36.348Z,1.65
2018-12-08T16:17:05.071Z,2.02
2018-12-08T16:19:33.437Z,1.42
2018-12-08T16:22:01.915Z,1.42
2018-12-08T16:24:30.367Z,2.25
2018-12-08T16:26:58.683Z,3.15
2018-12-08T16:29:27.054Z,1.80
2018-12-08T16:31:55.432Z,2.20
2018-12-08T16:34:23.767Z,1.98
2018-12-08T16:36:52.104Z,2.25
2018-12-08T16:39:20.490Z,1.70
2018-12-08T16:41:48.933Z,1.40
2018-12-08T16:44:17.292Z,1.80
2018-12-08T16:46:45.744Z,1.32
2018-12-08T16:49:14.087Z,3.45
2018-12-08T16:51:42.503Z,1.50
2018-12-08T16:54:10.910Z,1.98
2018-12-08T16:56:39.300Z,1.65
2018-12-08T16:59:07.675Z,1.50
2018-12-08T17:01:36.048Z,1.77
2018-12-08T17:04:04.522Z,2.05
2018-12-08T17:06:33.032Z,2.17
2018-12-08T17:09:01.412Z,2.10
2018-12-08T17:11:29.727Z,2.60
2018-12-08T17:13:58.245Z,1.98
2018-12-08T17:16:26.823Z,2.30
2018-12-08T17:18:55.328Z,2.87
2018-12-08T17:21:23.763Z,2.20
2018-12-08T17:23:52.307Z,2.05
2018-12-08T17:26:20.901Z,2.20
2018-12-08T17:28:49.264Z,1.92
2018-12-08T17:31:17.668Z,2.60
2018-12-08T17:33:46.059Z,2.47
2018-12-08T17:36:14.390Z,2.30
2018-12-08T17:38:42.761Z,2.02
2018-12-08T17:41:11.301Z,2.47
2018-12-08T17:43:39.685Z,1.67
2018-12-08T17:46:08.087Z,3.10
2018-12-08T17:48:36.481Z,2.00
2018-12-08T17:51:05.456Z,2.85
2018-12-08T17:53:33.820Z,2.98
2018-12-08T17:56:02.204Z,2.50
2018-12-08T17:58:30.544Z,2.33
2018-12-08T18:00:59.100Z,2.40
2018-12-08T18:03:27.414Z,2.50
2018-12-08T18:05:55.860Z,2.50
2018-12-08T18:08:24.281Z,2.55
2018-12-08T18:10:52.688Z,1.70
2018-12-08T18:13:21.158Z,2.85
2018-12-08T18:15:49.564Z,3.27
2018-12-08T18:18:18.057Z,2.62
2018-12-08T18:20:46.513Z,2.15
2018-12-08T18:23:14.935Z,3.30
2018-12-08T18:25:43.319Z,2.50
2018-12-08T18:28:11.687Z,2.67
2018-12-08T18:30:40.024Z,2.27
2018-12-08T18:33:09.347Z,2.27
2018-12-08T18:35:37.704Z,2.83
2018-12-08T18:38:06.056Z,2.52
2018-12-08T18:40:34.476Z,3.50
2018-12-08T18:43:02.928Z,3.05
2018-12-08T18:45:31.456Z,2.00
2018-12-08T18:47:59.781Z,2.62
2018-12-08T18:50:28.250Z,2.42
2018-12-08T18:52:59.326Z,2.50
2018-12-08T18:55:27.690Z,2.10
2018-12-08T18:57:56.156Z,2.47
2018-12-08T19:00:24.529Z,2.65
2018-12-08T19:02:52.937Z,2.17
2018-12-08T19:05:25.935Z,2.87
2018-12-08T19:07:54.359Z,2.40
2018-12-08T19:10:22.868Z,2.47
2018-12-08T19:12:51.353Z,3.77
2018-12-08T19:15:19.725Z,2.17
2018-12-08T19:17:48.170Z,1.80
2018-12-08T19:20:16.537Z,2.40
2018-12-08T19:22:44.893Z,2.50
2018-12-08T19:25:13.382Z,2.47
2018-12-08T19:27:41.900Z,1.62
2018-12-08T19:30:10.896Z,1.70
2018-12-08T19:32:39.217Z,2.10
2018-12-08T19:35:07.659Z,2.00
2018-12-08T19:37:36.025Z,2.27
2018-12-08T19:40:05.260Z,2.40
2018-12-08T19:42:33.604Z,2.10
2018-12-08T19:45:01.948Z,1.95
2018-12-08T19:47:30.329Z,1.50
2018-12-08T19:49:58.922Z,2.00
2018-12-08T19:52:27.349Z,1.60
2018-12-08T19:54:55.730Z,1.85
2018-12-08T19:57:24.124Z,1.45
2018-12-08T19:59:52.547Z,1.40
2018-12-08T20:02:21.658Z,1.30
2018-12-08T20:04:49.994Z,1.77
2018-12-08T20:07:18.374Z,1.52
2018-12-08T20:09:46.754Z,0.93
2018-12-08T20:12:15.565Z,1.10
2018-12-08T20:14:43.956Z,1.20
2018-12-08T20:17:12.374Z,1.00
2018-12-08T20:19:40.819Z,1.80
2018-12-08T20:22:09.239Z,1.60
2018-12-08T20:24:37.614Z,1.25
2018-12-08T20:27:06.006Z,1.07
2018-12-08T20:29:34.421Z,1.32
2018-12-08T20:32:02.796Z,1.30
2018-12-08T20:34:31.143Z,1.47
2018-12-08T20:36:59.512Z,2.17
2018-12-08T20:39:27.872Z,1.45
2018-12-08T20:41:56.248Z,1.52
2018-12-08T20:44:25.249Z,2.08
2018-12-08T20:46:53.676Z,1.20
2018-12-08T20:49:22.064Z,1.72
2018-12-08T20:51:50.478Z,1.40
2018-12-08T20:54:21.103Z,1.30
2018-12-08T20:56:50.419Z,1.10
2018-12-08T20:59:19.066Z,1.87
2018-12-08T21:01:47.529Z,1.40
2018-12-08T21:04:15.945Z,1.50
2018-12-08T21:06:44.409Z,1.30
2018-12-08T21:09:13.156Z,1.00
2018-12-08T21:11:41.620Z,1.20
2018-12-08T21:14:10.073Z,1.30
2018-12-08T21:16:38.425Z,1.22
2018-12-08T21:19:06.932Z,2.00
2018-12-08T21:21:35.306Z,2.20
2018-12-08T21:24:04.002Z,1.32
2018-12-08T21:26:33.270Z,1.45
2018-12-08T21:29:01.740Z,1.70
2018-12-08T21:31:30.097Z,1.30
2018-12-08T21:33:58.460Z,1.10
2018-12-08T21:36:26.859Z,1.40
2018-12-08T21:38:55.216Z,1.37
2018-12-08T21:41:23.696Z,1.40
2018-12-08T21:43:52.085Z,1.52
2018-12-08T21:46:20.433Z,1.10
2018-12-08T21:48:48.818Z,1.40
2018-12-08T21:51:17.226Z,1.40
2018-12-08T21:53:45.661Z,1.75
2018-12-08T21:56:14.114Z,1.52
2018-12-08T21:58:42.501Z,0.95
2018-12-08T22:01:10.920Z,1.60
2018-12-08T22:03:39.296Z,1.30
2018-12-08T22:06:07.753Z,1.80
2018-12-08T22:08:36.100Z,1.95
2018-12-08T22:11:04.459Z,1.37
2018-12-08T22:13:32.847Z,1.37
2018-12-08T22:16:01.259Z,1.10
2018-12-08T22:18:29.684Z,1.50
2018-12-08T22:20:58.123Z,1.95
2018-12-08T22:23:26.773Z,1.20
2018-12-08T22:25:55.269Z,0.93
2018-12-08T22:28:24.518Z,0.70
2018-12-08T22:30:52.928Z,0.90
2018-12-08T22:33:21.382Z,0.93
2018-12-08T22:35:49.798Z,0.90
2018-12-08T22:38:18.634Z,0.70
2018-12-08T22:40:47.993Z,0.98
2018-12-08T22:43:16.627Z,0.98
2018-12-08T22:45:45.379Z,1.00
2018-12-08T22:48:13.825Z,0.65
2018-12-08T22:50:42.424Z,0.90
2018-12-08T22:53:11.076Z,0.80
2018-12-08T22:55:39.618Z,0.55
2018-12-08T22:58:08.241Z,0.60
2018-12-08T23:00:44.618Z,0.53
2018-12-08T23:03:14.930Z,0.75
2018-12-08T23:05:43.738Z,0.78
2018-12-08T23:08:12.390Z,0.60
2018-12-08T23:10:40.863Z,0.80
2018-12-08T23:13:09.388Z,0.65
2018-12-08T23:15:37.942Z,0.72
2018-12-08T23:18:06.445Z,0.95
2018-12-08T23:20:35.077Z,0.90
2018-12-08T23:23:03.589Z,0.82
2018-12-08T23:25:32.266Z,0.95
2018-12-08T23:28:00.730Z,0.72
2018-12-08T23:30:29.335Z,1.10
2018-12-08T23:32:57.689Z,0.80
2018-12-08T23:35:26.716Z,0.72
2018-12-08T23:37:55.190Z,0.70
2018-12-08T23:40:23.957Z,0.65
2018-12-08T23:42:52.309Z,0.70
2018-12-08T23:45:20.827Z,0.62
2018-12-08T23:47:49.237Z,0.57
2018-12-08T23:50:17.643Z,1.05
2018-12-08T23:52:46.262Z,0.50
2018-12-08T23:55:14.727Z,0.40
2018-12-08T23:57:43.109Z,0.70
